Willsboro, New York
Current Conditions -  °F | °C
As of 1:54 PM on Friday 24 Oct 2014 (Local Time) from KBTV Reporting Station
Overcast Overcast  
Wind Chill:   Ceiling: 2200
Heat Index:   Visibility: 10mi
Dew Point:   Wind: 12mph
Humidity: 79%   Direction: 10°N
Pressure: 29.84"   Gusts: NA
Location:  44.36°N, 73.39°W
Report Text: KBTV 241754Z 01010KT 10SM OVC022 08/04 A2984 RMK AO2 SLP106 60001 T00780044 10078 20056 58010
Loading
Personal Weather Stations






























Interactive Weather Map
Tropical Storm Tracking
New forecast layout! Learn more

10-Day Weather Forecast

Advertisements
Track Severe Weather on mobile